Sao Sebastiao Do Tocantins, Brazil
Current Conditions -  °F | °C
As of 3:00 PM on Thursday 30 Oct 2014 (Local Time) from SBIZ Reporting Station
Scattered Clouds Scattered Clouds  
Wind Chill: 95°   Ceiling: Unl
Heat Index: 103°   Visibility: 6mi
Dew Point: 72°   Wind: 6mph
Humidity: 47%   Direction: 360°N
Pressure: 29.74"   Gusts: NA
Location:  5.26°S, 48.2°W
Report Text: SBIZ 301800Z 36005KT 9999 SCT020 35/22 Q1007
Loading
Personal Weather Stations






























Interactive Weather Map
Tropical Storm Tracking
New forecast layout! Learn more

10-Day Weather Forecast

Advertisements
Track Severe Weather on mobile